sensor_id;sensor_type;location;lat;lon;timestamp;P1;durP1;ratioP1;P2;durP2;ratioP2
47251;SDS011;32991;51.374;11.586;2023-04-06T00:01:53;9.40;;;6.22;;
47251;SDS011;32991;51.374;11.586;2023-04-06T00:04:20;8.70;;;5.72;;
47251;SDS011;32991;51.374;11.586;2023-04-06T00:06:47;8.02;;;5.63;;
47251;SDS011;32991;51.374;11.586;2023-04-06T00:09:13;8.38;;;5.97;;
47251;SDS011;32991;51.374;11.586;2023-04-06T00:11:40;9.85;;;6.30;;
47251;SDS011;32991;51.374;11.586;2023-04-06T00:14:06;10.65;;;6.32;;
47251;SDS011;32991;51.374;11.586;2023-04-06T00:16:33;13.88;;;5.88;;
47251;SDS011;32991;51.374;11.586;2023-04-06T00:18:59;8.55;;;6.55;;
47251;SDS011;32991;51.374;11.586;2023-04-06T00:21:26;11.10;;;5.78;;
47251;SDS011;32991;51.374;11.586;2023-04-06T00:23:52;11.07;;;5.70;;
47251;SDS011;32991;51.374;11.586;2023-04-06T00:26:19;10.98;;;6.70;;
47251;SDS011;32991;51.374;11.586;2023-04-06T00:28:47;8.90;;;5.97;;
47251;SDS011;32991;51.374;11.586;2023-04-06T00:31:13;8.63;;;5.82;;
47251;SDS011;32991;51.374;11.586;2023-04-06T00:33:40;10.15;;;6.15;;
47251;SDS011;32991;51.374;11.586;2023-04-06T00:36:06;12.05;;;6.28;;
47251;SDS011;32991;51.374;11.586;2023-04-06T00:38:33;11.45;;;5.60;;
47251;SDS011;32991;51.374;11.586;2023-04-06T00:40:59;8.55;;;6.22;;
47251;SDS011;32991;51.374;11.586;2023-04-06T00:43:26;11.35;;;6.85;;
47251;SDS011;32991;51.374;11.586;2023-04-06T00:45:53;9.95;;;6.40;;
47251;SDS011;32991;51.374;11.586;2023-04-06T00:48:20;11.35;;;6.38;;
47251;SDS011;32991;51.374;11.586;2023-04-06T00:50:47;9.80;;;6.32;;
47251;SDS011;32991;51.374;11.586;2023-04-06T00:53:13;8.93;;;6.38;;
47251;SDS011;32991;51.374;11.586;2023-04-06T00:55:40;10.32;;;6.95;;
47251;SDS011;32991;51.374;11.586;2023-04-06T00:58:07;10.00;;;6.38;;
47251;SDS011;32991;51.374;11.586;2023-04-06T01:00:43;7.95;;;6.70;;
47251;SDS011;32991;51.374;11.586;2023-04-06T01:03:15;8.50;;;6.78;;
47251;SDS011;32991;51.374;11.586;2023-04-06T01:05:42;9.60;;;6.72;;
47251;SDS011;32991;51.374;11.586;2023-04-06T01:08:18;12.18;;;7.38;;
47251;SDS011;32991;51.374;11.586;2023-04-06T01:10:45;10.95;;;6.90;;
47251;SDS011;32991;51.374;11.586;2023-04-06T01:13:22;9.90;;;6.68;;
47251;SDS011;32991;51.374;11.586;2023-04-06T01:15:54;9.15;;;6.82;;
47251;SDS011;32991;51.374;11.586;2023-04-06T01:18:29;9.60;;;7.18;;
47251;SDS011;32991;51.374;11.586;2023-04-06T01:21:09;7.78;;;6.88;;
47251;SDS011;32991;51.374;11.586;2023-04-06T01:23:54;9.65;;;6.45;;
47251;SDS011;32991;51.374;11.586;2023-04-06T01:28:58;9.40;;;6.97;;
47251;SDS011;32991;51.374;11.586;2023-04-06T01:31:27;11.57;;;7.25;;
47251;SDS011;32991;51.374;11.586;2023-04-06T01:33:54;8.10;;;6.22;;
47251;SDS011;32991;51.374;11.586;2023-04-06T01:36:23;10.00;;;6.80;;
47251;SDS011;32991;51.374;11.586;2023-04-06T01:38:58;9.88;;;7.05;;
47251;SDS011;32991;51.374;11.586;2023-04-06T01:41:31;12.65;;;7.50;;
47251;SDS011;32991;51.374;11.586;2023-04-06T01:43:58;10.25;;;7.78;;
47251;SDS011;32991;51.374;11.586;2023-04-06T01:46:27;11.20;;;7.03;;
47251;SDS011;32991;51.374;11.586;2023-04-06T01:51:51;9.70;;;6.97;;
47251;SDS011;32991;51.374;11.586;2023-04-06T01:54:19;9.25;;;7.20;;
47251;SDS011;32991;51.374;11.586;2023-04-06T01:57:07;11.38;;;7.10;;
47251;SDS011;32991;51.374;11.586;2023-04-06T01:59:44;10.43;;;6.97;;
47251;SDS011;32991;51.374;11.586;2023-04-06T02:02:19;8.50;;;7.03;;
47251;SDS011;32991;51.374;11.586;2023-04-06T02:04:55;10.82;;;7.45;;
47251;SDS011;32991;51.374;11.586;2023-04-06T02:07:22;8.75;;;6.97;;
47251;SDS011;32991;51.374;11.586;2023-04-06T02:09:48;11.65;;;7.13;;
47251;SDS011;32991;51.374;11.586;2023-04-06T02:12:23;10.48;;;8.15;;
47251;SDS011;32991;51.374;11.586;2023-04-06T02:14:51;12.10;;;6.95;;
47251;SDS011;32991;51.374;11.586;2023-04-06T02:17:18;10.98;;;7.65;;
47251;SDS011;32991;51.374;11.586;2023-04-06T02:19:44;9.68;;;6.80;;
47251;SDS011;32991;51.374;11.586;2023-04-06T02:22:11;9.40;;;7.50;;
47251;SDS011;32991;51.374;11.586;2023-04-06T02:24:37;11.15;;;7.43;;
47251;SDS011;32991;51.374;11.586;2023-04-06T02:27:04;8.35;;;7.22;;
47251;SDS011;32991;51.374;11.586;2023-04-06T02:29:30;10.98;;;6.90;;
47251;SDS011;32991;51.374;11.586;2023-04-06T02:31:57;12.80;;;7.35;;
47251;SDS011;32991;51.374;11.586;2023-04-06T02:34:24;10.52;;;6.85;;
47251;SDS011;32991;51.374;11.586;2023-04-06T02:36:51;10.20;;;6.95;;
47251;SDS011;32991;51.374;11.586;2023-04-06T02:39:17;8.95;;;6.53;;
47251;SDS011;32991;51.374;11.586;2023-04-06T02:41:44;13.52;;;6.65;;
47251;SDS011;32991;51.374;11.586;2023-04-06T02:44:13;9.40;;;6.43;;
47251;SDS011;32991;51.374;11.586;2023-04-06T02:46:42;8.55;;;6.80;;
47251;SDS011;32991;51.374;11.586;2023-04-06T02:49:08;8.65;;;6.97;;
47251;SDS011;32991;51.374;11.586;2023-04-06T02:51:36;10.68;;;7.05;;
47251;SDS011;32991;51.374;11.586;2023-04-06T02:54:18;9.13;;;7.25;;
47251;SDS011;32991;51.374;11.586;2023-04-06T02:56:44;11.10;;;7.40;;
47251;SDS011;32991;51.374;11.586;2023-04-06T02:59:11;11.60;;;7.35;;
47251;SDS011;32991;51.374;11.586;2023-04-06T03:01:42;12.00;;;6.72;;
47251;SDS011;32991;51.374;11.586;2023-04-06T03:04:09;11.02;;;8.13;;
47251;SDS011;32991;51.374;11.586;2023-04-06T03:06:36;15.38;;;7.70;;
47251;SDS011;32991;51.374;11.586;2023-04-06T03:09:12;8.63;;;7.18;;
47251;SDS011;32991;51.374;11.586;2023-04-06T03:11:42;10.23;;;7.13;;
47251;SDS011;32991;51.374;11.586;2023-04-06T03:14:08;18.35;;;7.88;;
47251;SDS011;32991;51.374;11.586;2023-04-06T03:16:35;10.13;;;7.57;;
47251;SDS011;32991;51.374;11.586;2023-04-06T03:19:02;15.57;;;8.20;;
47251;SDS011;32991;51.374;11.586;2023-04-06T03:21:32;9.93;;;6.65;;
47251;SDS011;32991;51.374;11.586;2023-04-06T03:23:59;10.45;;;7.40;;
47251;SDS011;32991;51.374;11.586;2023-04-06T03:26:26;9.75;;;7.45;;
47251;SDS011;32991;51.374;11.586;2023-04-06T03:28:52;16.10;;;8.02;;
47251;SDS011;32991;51.374;11.586;2023-04-06T03:31:23;10.90;;;7.03;;
47251;SDS011;32991;51.374;11.586;2023-04-06T03:33:55;11.32;;;7.65;;
47251;SDS011;32991;51.374;11.586;2023-04-06T03:36:26;13.82;;;8.73;;
47251;SDS011;32991;51.374;11.586;2023-04-06T03:38:55;17.10;;;8.80;;
47251;SDS011;32991;51.374;11.586;2023-04-06T03:41:22;17.10;;;8.52;;
47251;SDS011;32991;51.374;11.586;2023-04-06T03:44:15;12.87;;;9.00;;
47251;SDS011;32991;51.374;11.586;2023-04-06T03:46:43;12.77;;;8.97;;
47251;SDS011;32991;51.374;11.586;2023-04-06T03:49:10;12.17;;;8.50;;
47251;SDS011;32991;51.374;11.586;2023-04-06T03:51:38;15.93;;;9.50;;
47251;SDS011;32991;51.374;11.586;2023-04-06T03:54:04;14.45;;;9.43;;
47251;SDS011;32991;51.374;11.586;2023-04-06T03:56:31;13.60;;;9.23;;
47251;SDS011;32991;51.374;11.586;2023-04-06T03:58:57;14.77;;;9.77;;
47251;SDS011;32991;51.374;11.586;2023-04-06T04:01:24;15.07;;;9.93;;
47251;SDS011;32991;51.374;11.586;2023-04-06T04:03:51;15.20;;;9.77;;
47251;SDS011;32991;51.374;11.586;2023-04-06T04:06:18;15.03;;;9.93;;
47251;SDS011;32991;51.374;11.586;2023-04-06T04:08:45;15.97;;;10.80;;
47251;SDS011;32991;51.374;11.586;2023-04-06T04:11:11;15.73;;;9.70;;
47251;SDS011;32991;51.374;11.586;2023-04-06T04:13:38;101.23;;;31.50;;
47251;SDS011;32991;51.374;11.586;2023-04-06T04:16:06;56.93;;;19.77;;
47251;SDS011;32991;51.374;11.586;2023-04-06T04:18:32;116.30;;;34.83;;
47251;SDS011;32991;51.374;11.586;2023-04-06T04:20:59;107.63;;;34.37;;
47251;SDS011;32991;51.374;11.586;2023-04-06T04:23:25;120.43;;;34.57;;
47251;SDS011;32991;51.374;11.586;2023-04-06T04:25:52;113.23;;;34.93;;
47251;SDS011;32991;51.374;11.586;2023-04-06T04:28:19;71.77;;;23.90;;
47251;SDS011;32991;51.374;11.586;2023-04-06T04:30:46;40.80;;;17.73;;
47251;SDS011;32991;51.374;11.586;2023-04-06T04:33:13;29.10;;;13.17;;
47251;SDS011;32991;51.374;11.586;2023-04-06T04:35:40;28.10;;;13.10;;
47251;SDS011;32991;51.374;11.586;2023-04-06T04:38:11;43.00;;;16.20;;
47251;SDS011;32991;51.374;11.586;2023-04-06T04:40:41;41.97;;;18.17;;
47251;SDS011;32991;51.374;11.586;2023-04-06T04:43:10;56.43;;;20.47;;
47251;SDS011;32991;51.374;11.586;2023-04-06T04:45:37;58.60;;;21.90;;
47251;SDS011;32991;51.374;11.586;2023-04-06T04:48:14;44.80;;;18.60;;
47251;SDS011;32991;51.374;11.586;2023-04-06T04:50:51;36.73;;;16.43;;
47251;SDS011;32991;51.374;11.586;2023-04-06T04:53:22;35.33;;;16.07;;
47251;SDS011;32991;51.374;11.586;2023-04-06T04:55:53;28.00;;;12.80;;
47251;SDS011;32991;51.374;11.586;2023-04-06T04:58:20;19.10;;;11.40;;
47251;SDS011;32991;51.374;11.586;2023-04-06T05:00:52;21.27;;;12.20;;
47251;SDS011;32991;51.374;11.586;2023-04-06T05:03:23;23.67;;;12.20;;
47251;SDS011;32991;51.374;11.586;2023-04-06T05:05:56;22.13;;;12.60;;
47251;SDS011;32991;51.374;11.586;2023-04-06T05:11:24;17.13;;;10.83;;
47251;SDS011;32991;51.374;11.586;2023-04-06T05:13:57;15.85;;;10.35;;
47251;SDS011;32991;51.374;11.586;2023-04-06T05:16:27;22.02;;;12.23;;
47251;SDS011;32991;51.374;11.586;2023-04-06T05:18:53;21.40;;;11.98;;
47251;SDS011;32991;51.374;11.586;2023-04-06T05:21:26;17.45;;;11.35;;
47251;SDS011;32991;51.374;11.586;2023-04-06T05:23:58;16.98;;;11.77;;
47251;SDS011;32991;51.374;11.586;2023-04-06T05:26:26;15.13;;;11.07;;
47251;SDS011;32991;51.374;11.586;2023-04-06T05:28:57;14.23;;;10.25;;
47251;SDS011;32991;51.374;11.586;2023-04-06T05:31:25;16.75;;;10.15;;
47251;SDS011;32991;51.374;11.586;2023-04-06T05:33:52;13.77;;;11.27;;
47251;SDS011;32991;51.374;11.586;2023-04-06T05:36:34;15.93;;;10.85;;
47251;SDS011;32991;51.374;11.586;2023-04-06T05:39:06;10.32;;;9.18;;
47251;SDS011;32991;51.374;11.586;2023-04-06T05:41:39;10.53;;;9.33;;
47251;SDS011;32991;51.374;11.586;2023-04-06T05:44:08;12.88;;;11.57;;
47251;SDS011;32991;51.374;11.586;2023-04-06T05:46:35;13.10;;;11.43;;
47251;SDS011;32991;51.374;11.586;2023-04-06T05:49:03;17.17;;;11.95;;
47251;SDS011;32991;51.374;11.586;2023-04-06T05:51:33;14.23;;;11.07;;
47251;SDS011;32991;51.374;11.586;2023-04-06T05:54:01;27.58;;;23.30;;
47251;SDS011;32991;51.374;11.586;2023-04-06T05:56:28;13.93;;;12.27;;
47251;SDS011;32991;51.374;11.586;2023-04-06T05:58:56;14.63;;;12.55;;
47251;SDS011;32991;51.374;11.586;2023-04-06T06:01:26;14.65;;;13.20;;
47251;SDS011;32991;51.374;11.586;2023-04-06T06:03:53;14.02;;;12.70;;
47251;SDS011;32991;51.374;11.586;2023-04-06T06:06:22;13.15;;;11.77;;
47251;SDS011;32991;51.374;11.586;2023-04-06T06:09:09;15.43;;;12.00;;
47251;SDS011;32991;51.374;11.586;2023-04-06T06:11:41;13.32;;;10.93;;
47251;SDS011;32991;51.374;11.586;2023-04-06T06:14:11;11.82;;;10.73;;
47251;SDS011;32991;51.374;11.586;2023-04-06T06:16:39;11.77;;;10.63;;
47251;SDS011;32991;51.374;11.586;2023-04-06T06:19:07;12.68;;;11.50;;
47251;SDS011;32991;51.374;11.586;2023-04-06T06:21:35;12.80;;;10.90;;
47251;SDS011;32991;51.374;11.586;2023-04-06T06:24:04;11.70;;;10.60;;
47251;SDS011;32991;51.374;11.586;2023-04-06T06:26:31;13.50;;;11.32;;
47251;SDS011;32991;51.374;11.586;2023-04-06T06:28:59;10.55;;;9.55;;
47251;SDS011;32991;51.374;11.586;2023-04-06T06:31:26;11.07;;;9.95;;
47251;SDS011;32991;51.374;11.586;2023-04-06T06:33:53;10.25;;;9.35;;
47251;SDS011;32991;51.374;11.586;2023-04-06T06:36:20;10.43;;;9.38;;
47251;SDS011;32991;51.374;11.586;2023-04-06T06:38:47;11.25;;;9.13;;
47251;SDS011;32991;51.374;11.586;2023-04-06T06:41:16;11.43;;;9.50;;
47251;SDS011;32991;51.374;11.586;2023-04-06T06:43:42;10.18;;;9.18;;
47251;SDS011;32991;51.374;11.586;2023-04-06T06:46:10;10.98;;;8.90;;
47251;SDS011;32991;51.374;11.586;2023-04-06T06:48:39;9.80;;;8.77;;
47251;SDS011;32991;51.374;11.586;2023-04-06T06:51:05;9.55;;;8.57;;
47251;SDS011;32991;51.374;11.586;2023-04-06T06:53:32;10.13;;;9.13;;
47251;SDS011;32991;51.374;11.586;2023-04-06T06:55:58;8.82;;;8.00;;
47251;SDS011;32991;51.374;11.586;2023-04-06T06:58:25;8.73;;;7.80;;
47251;SDS011;32991;51.374;11.586;2023-04-06T07:00:58;9.35;;;7.68;;
47251;SDS011;32991;51.374;11.586;2023-04-06T07:03:27;10.48;;;7.47;;
47251;SDS011;32991;51.374;11.586;2023-04-06T07:05:55;8.35;;;7.13;;
47251;SDS011;32991;51.374;11.586;2023-04-06T07:08:23;7.82;;;7.00;;
47251;SDS011;32991;51.374;11.586;2023-04-06T07:10:51;9.75;;;7.15;;
47251;SDS011;32991;51.374;11.586;2023-04-06T07:13:19;6.70;;;6.05;;
47251;SDS011;32991;51.374;11.586;2023-04-06T07:15:51;7.07;;;6.37;;
47251;SDS011;32991;51.374;11.586;2023-04-06T07:18:18;6.78;;;6.07;;
47251;SDS011;32991;51.374;11.586;2023-04-06T07:20:46;7.32;;;5.57;;
47251;SDS011;32991;51.374;11.586;2023-04-06T07:23:14;6.53;;;5.90;;
47251;SDS011;32991;51.374;11.586;2023-04-06T07:25:40;6.70;;;5.55;;
47251;SDS011;32991;51.374;11.586;2023-04-06T07:28:08;7.45;;;5.80;;
47251;SDS011;32991;51.374;11.586;2023-04-06T07:30:36;8.10;;;5.95;;
47251;SDS011;32991;51.374;11.586;2023-04-06T07:33:03;6.78;;;5.20;;
47251;SDS011;32991;51.374;11.586;2023-04-06T07:35:33;6.63;;;5.55;;
47251;SDS011;32991;51.374;11.586;2023-04-06T07:38:01;6.75;;;4.85;;
47251;SDS011;32991;51.374;11.586;2023-04-06T07:40:28;6.47;;;4.82;;
47251;SDS011;32991;51.374;11.586;2023-04-06T07:42:56;5.93;;;5.38;;
47251;SDS011;32991;51.374;11.586;2023-04-06T07:45:23;6.13;;;5.03;;
47251;SDS011;32991;51.374;11.586;2023-04-06T07:47:51;5.68;;;4.93;;
47251;SDS011;32991;51.374;11.586;2023-04-06T07:50:18;6.30;;;4.80;;
47251;SDS011;32991;51.374;11.586;2023-04-06T07:52:44;5.55;;;4.93;;
47251;SDS011;32991;51.374;11.586;2023-04-06T07:55:11;5.30;;;4.63;;
47251;SDS011;32991;51.374;11.586;2023-04-06T07:57:37;6.68;;;4.80;;
47251;SDS011;32991;51.374;11.586;2023-04-06T08:00:04;6.88;;;5.25;;
47251;SDS011;32991;51.374;11.586;2023-04-06T08:02:37;6.70;;;5.00;;
47251;SDS011;32991;51.374;11.586;2023-04-06T08:05:03;6.72;;;5.18;;
47251;SDS011;32991;51.374;11.586;2023-04-06T08:07:30;5.32;;;4.80;;
47251;SDS011;32991;51.374;11.586;2023-04-06T08:09:57;7.15;;;4.68;;
47251;SDS011;32991;51.374;11.586;2023-04-06T08:12:23;6.25;;;4.90;;
47251;SDS011;32991;51.374;11.586;2023-04-06T08:14:50;8.80;;;5.10;;
47251;SDS011;32991;51.374;11.586;2023-04-06T08:17:16;5.75;;;4.78;;
47251;SDS011;32991;51.374;11.586;2023-04-06T08:19:43;6.95;;;5.03;;
47251;SDS011;32991;51.374;11.586;2023-04-06T08:22:10;6.00;;;4.80;;
47251;SDS011;32991;51.374;11.586;2023-04-06T08:24:37;6.28;;;4.93;;
47251;SDS011;32991;51.374;11.586;2023-04-06T08:27:04;5.45;;;4.95;;
47251;SDS011;32991;51.374;11.586;2023-04-06T08:29:30;5.53;;;4.85;;
47251;SDS011;32991;51.374;11.586;2023-04-06T08:31:57;5.15;;;4.63;;
47251;SDS011;32991;51.374;11.586;2023-04-06T08:34:23;7.47;;;5.38;;
47251;SDS011;32991;51.374;11.586;2023-04-06T08:36:50;6.07;;;5.20;;
47251;SDS011;32991;51.374;11.586;2023-04-06T08:39:17;6.70;;;4.97;;
47251;SDS011;32991;51.374;11.586;2023-04-06T08:41:43;7.43;;;5.35;;
47251;SDS011;32991;51.374;11.586;2023-04-06T08:44:10;5.93;;;5.43;;
47251;SDS011;32991;51.374;11.586;2023-04-06T08:46:37;8.07;;;5.70;;
47251;SDS011;32991;51.374;11.586;2023-04-06T08:49:04;7.60;;;5.72;;
47251;SDS011;32991;51.374;11.586;2023-04-06T08:51:33;7.05;;;6.13;;
47251;SDS011;32991;51.374;11.586;2023-04-06T08:54:01;7.55;;;5.90;;
47251;SDS011;32991;51.374;11.586;2023-04-06T08:56:27;7.63;;;5.93;;
47251;SDS011;32991;51.374;11.586;2023-04-06T08:58:54;7.82;;;6.30;;
47251;SDS011;32991;51.374;11.586;2023-04-06T09:01:23;7.53;;;6.10;;
47251;SDS011;32991;51.374;11.586;2023-04-06T09:03:54;6.47;;;5.72;;
47251;SDS011;32991;51.374;11.586;2023-04-06T09:06:22;7.68;;;6.55;;
47251;SDS011;32991;51.374;11.586;2023-04-06T09:08:49;7.45;;;5.78;;
47251;SDS011;32991;51.374;11.586;2023-04-06T09:11:16;8.48;;;6.55;;
47251;SDS011;32991;51.374;11.586;2023-04-06T09:13:55;7.82;;;6.10;;
47251;SDS011;32991;51.374;11.586;2023-04-06T09:16:23;7.03;;;5.55;;
47251;SDS011;32991;51.374;11.586;2023-04-06T09:18:50;9.80;;;6.40;;
47251;SDS011;32991;51.374;11.586;2023-04-06T09:21:17;8.38;;;5.90;;
47251;SDS011;32991;51.374;11.586;2023-04-06T09:23:44;7.68;;;6.45;;
47251;SDS011;32991;51.374;11.586;2023-04-06T09:26:12;9.77;;;5.65;;
47251;SDS011;32991;51.374;11.586;2023-04-06T09:28:43;9.10;;;6.25;;
47251;SDS011;32991;51.374;11.586;2023-04-06T09:31:27;7.85;;;6.32;;
47251;SDS011;32991;51.374;11.586;2023-04-06T09:33:56;8.20;;;5.78;;
47251;SDS011;32991;51.374;11.586;2023-04-06T09:36:29;9.38;;;6.65;;
47251;SDS011;32991;51.374;11.586;2023-04-06T09:39:00;8.43;;;6.65;;
47251;SDS011;32991;51.374;11.586;2023-04-06T09:41:32;8.40;;;6.18;;
47251;SDS011;32991;51.374;11.586;2023-04-06T09:46:28;8.75;;;5.95;;
47251;SDS011;32991;51.374;11.586;2023-04-06T09:49:09;8.95;;;5.70;;
47251;SDS011;32991;51.374;11.586;2023-04-06T09:51:39;8.70;;;5.07;;
47251;SDS011;32991;51.374;11.586;2023-04-06T09:54:07;6.50;;;5.63;;
47251;SDS011;32991;51.374;11.586;2023-04-06T09:56:39;7.43;;;5.38;;
47251;SDS011;32991;51.374;11.586;2023-04-06T09:59:22;6.72;;;5.55;;
47251;SDS011;32991;51.374;11.586;2023-04-06T10:01:54;7.82;;;5.57;;
47251;SDS011;32991;51.374;11.586;2023-04-06T10:04:31;6.80;;;5.07;;
47251;SDS011;32991;51.374;11.586;2023-04-06T10:07:03;9.45;;;5.55;;
47251;SDS011;32991;51.374;11.586;2023-04-06T10:09:31;10.30;;;6.10;;
47251;SDS011;32991;51.374;11.586;2023-04-06T10:12:03;6.90;;;5.85;;
47251;SDS011;32991;51.374;11.586;2023-04-06T10:14:34;6.63;;;5.25;;
47251;SDS011;32991;51.374;11.586;2023-04-06T10:17:04;10.27;;;6.63;;
47251;SDS011;32991;51.374;11.586;2023-04-06T10:19:36;8.18;;;5.68;;
47251;SDS011;32991;51.374;11.586;2023-04-06T10:22:08;6.32;;;5.72;;
47251;SDS011;32991;51.374;11.586;2023-04-06T10:24:36;8.80;;;6.32;;
47251;SDS011;32991;51.374;11.586;2023-04-06T10:27:02;7.82;;;6.40;;
47251;SDS011;32991;51.374;11.586;2023-04-06T10:29:41;7.60;;;5.72;;
47251;SDS011;32991;51.374;11.586;2023-04-06T10:32:09;6.57;;;5.22;;
47251;SDS011;32991;51.374;11.586;2023-04-06T10:34:36;8.27;;;5.72;;
47251;SDS011;32991;51.374;11.586;2023-04-06T10:37:12;7.20;;;5.88;;
47251;SDS011;32991;51.374;11.586;2023-04-06T10:39:46;9.35;;;5.65;;
47251;SDS011;32991;51.374;11.586;2023-04-06T10:42:13;9.70;;;5.63;;
47251;SDS011;32991;51.374;11.586;2023-04-06T10:44:43;11.55;;;5.40;;
47251;SDS011;32991;51.374;11.586;2023-04-06T10:47:15;9.68;;;5.80;;
47251;SDS011;32991;51.374;11.586;2023-04-06T10:49:44;7.60;;;5.43;;
47251;SDS011;32991;51.374;11.586;2023-04-06T10:52:10;5.38;;;4.65;;
47251;SDS011;32991;51.374;11.586;2023-04-06T10:54:41;7.05;;;5.65;;
47251;SDS011;32991;51.374;11.586;2023-04-06T10:57:14;6.13;;;5.18;;
47251;SDS011;32991;51.374;11.586;2023-04-06T10:59:43;6.78;;;5.53;;
47251;SDS011;32991;51.374;11.586;2023-04-06T11:02:18;6.40;;;5.70;;
47251;SDS011;32991;51.374;11.586;2023-04-06T11:04:53;8.00;;;5.25;;
47251;SDS011;32991;51.374;11.586;2023-04-06T11:07:26;6.03;;;5.15;;
47251;SDS011;32991;51.374;11.586;2023-04-06T11:09:53;6.68;;;5.53;;
47251;SDS011;32991;51.374;11.586;2023-04-06T11:12:39;11.70;;;6.25;;
47251;SDS011;32991;51.374;11.586;2023-04-06T11:15:06;6.03;;;5.15;;
47251;SDS011;32991;51.374;11.586;2023-04-06T11:17:35;5.55;;;4.78;;
47251;SDS011;32991;51.374;11.586;2023-04-06T11:20:03;6.70;;;5.63;;
47251;SDS011;32991;51.374;11.586;2023-04-06T11:22:30;5.85;;;4.93;;
47251;SDS011;32991;51.374;11.586;2023-04-06T11:25:06;5.75;;;4.85;;
47251;SDS011;32991;51.374;11.586;2023-04-06T11:27:38;7.07;;;5.30;;
47251;SDS011;32991;51.374;11.586;2023-04-06T11:30:05;8.38;;;5.05;;
47251;SDS011;32991;51.374;11.586;2023-04-06T11:32:40;8.77;;;4.63;;
47251;SDS011;32991;51.374;11.586;2023-04-06T11:35:26;7.63;;;4.65;;
47251;SDS011;32991;51.374;11.586;2023-04-06T11:37:53;6.82;;;4.82;;
47251;SDS011;32991;51.374;11.586;2023-04-06T11:40:23;6.50;;;4.50;;
47251;SDS011;32991;51.374;11.586;2023-04-06T11:42:54;9.63;;;4.97;;
47251;SDS011;32991;51.374;11.586;2023-04-06T11:45:21;7.00;;;4.82;;
47251;SDS011;32991;51.374;11.586;2023-04-06T11:47:55;5.30;;;4.75;;
47251;SDS011;32991;51.374;11.586;2023-04-06T11:50:31;7.43;;;5.00;;
47251;SDS011;32991;51.374;11.586;2023-04-06T11:52:59;5.53;;;4.90;;
47251;SDS011;32991;51.374;11.586;2023-04-06T11:55:27;6.22;;;5.07;;
47251;SDS011;32991;51.374;11.586;2023-04-06T11:57:53;5.28;;;4.60;;
47251;SDS011;32991;51.374;11.586;2023-04-06T12:00:20;5.00;;;4.50;;
47251;SDS011;32991;51.374;11.586;2023-04-06T12:02:47;6.93;;;5.07;;
47251;SDS011;32991;51.374;11.586;2023-04-06T12:05:14;6.38;;;4.75;;
47251;SDS011;32991;51.374;11.586;2023-04-06T12:07:41;7.13;;;4.82;;
47251;SDS011;32991;51.374;11.586;2023-04-06T12:10:13;5.38;;;4.80;;
47251;SDS011;32991;51.374;11.586;2023-04-06T12:12:40;7.28;;;4.75;;
47251;SDS011;32991;51.374;11.586;2023-04-06T12:15:06;6.22;;;5.10;;
47251;SDS011;32991;51.374;11.586;2023-04-06T12:17:33;6.40;;;4.78;;
47251;SDS011;32991;51.374;11.586;2023-04-06T12:19:59;6.18;;;5.00;;
47251;SDS011;32991;51.374;11.586;2023-04-06T12:22:43;7.00;;;4.95;;
47251;SDS011;32991;51.374;11.586;2023-04-06T12:25:09;6.68;;;5.28;;
47251;SDS011;32991;51.374;11.586;2023-04-06T12:27:36;5.18;;;4.68;;
47251;SDS011;32991;51.374;11.586;2023-04-06T12:30:03;7.18;;;5.35;;
47251;SDS011;32991;51.374;11.586;2023-04-06T12:32:29;7.70;;;5.50;;
47251;SDS011;32991;51.374;11.586;2023-04-06T12:34:56;6.22;;;5.13;;
47251;SDS011;32991;51.374;11.586;2023-04-06T12:37:22;7.22;;;5.72;;
47251;SDS011;32991;51.374;11.586;2023-04-06T12:39:49;7.10;;;5.50;;
47251;SDS011;32991;51.374;11.586;2023-04-06T12:42:15;6.97;;;5.32;;
47251;SDS011;32991;51.374;11.586;2023-04-06T12:44:43;6.15;;;5.55;;
47251;SDS011;32991;51.374;11.586;2023-04-06T12:47:10;6.07;;;4.95;;
47251;SDS011;32991;51.374;11.586;2023-04-06T12:49:37;6.40;;;5.40;;
47251;SDS011;32991;51.374;11.586;2023-04-06T12:52:03;6.78;;;5.20;;
47251;SDS011;32991;51.374;11.586;2023-04-06T12:54:30;6.22;;;5.18;;
47251;SDS011;32991;51.374;11.586;2023-04-06T12:56:56;5.78;;;4.93;;
47251;SDS011;32991;51.374;11.586;2023-04-06T12:59:23;6.65;;;5.28;;
47251;SDS011;32991;51.374;11.586;2023-04-06T13:01:51;6.32;;;5.03;;
47251;SDS011;32991;51.374;11.586;2023-04-06T13:04:18;6.07;;;5.43;;
47251;SDS011;32991;51.374;11.586;2023-04-06T13:06:45;7.37;;;5.43;;
47251;SDS011;32991;51.374;11.586;2023-04-06T13:09:11;6.78;;;5.10;;
47251;SDS011;32991;51.374;11.586;2023-04-06T13:11:38;5.72;;;5.20;;
47251;SDS011;32991;51.374;11.586;2023-04-06T13:14:05;5.57;;;5.00;;
47251;SDS011;32991;51.374;11.586;2023-04-06T13:16:31;6.45;;;5.55;;
47251;SDS011;32991;51.374;11.586;2023-04-06T13:18:58;5.63;;;4.50;;
47251;SDS011;32991;51.374;11.586;2023-04-06T13:21:25;6.22;;;5.20;;
47251;SDS011;32991;51.374;11.586;2023-04-06T13:23:51;8.55;;;5.30;;
47251;SDS011;32991;51.374;11.586;2023-04-06T13:26:17;6.28;;;4.80;;
47251;SDS011;32991;51.374;11.586;2023-04-06T13:28:44;5.25;;;4.75;;
47251;SDS011;32991;51.374;11.586;2023-04-06T13:31:11;6.97;;;5.20;;
47251;SDS011;32991;51.374;11.586;2023-04-06T13:33:38;6.28;;;5.07;;
47251;SDS011;32991;51.374;11.586;2023-04-06T13:36:07;7.70;;;4.97;;
47251;SDS011;32991;51.374;11.586;2023-04-06T13:38:34;6.18;;;4.90;;
47251;SDS011;32991;51.374;11.586;2023-04-06T13:41:00;5.88;;;5.10;;
47251;SDS011;32991;51.374;11.586;2023-04-06T13:43:27;5.25;;;4.75;;
47251;SDS011;32991;51.374;11.586;2023-04-06T13:45:54;6.03;;;5.13;;
47251;SDS011;32991;51.374;11.586;2023-04-06T13:48:21;6.90;;;4.90;;
47251;SDS011;32991;51.374;11.586;2023-04-06T13:50:48;9.57;;;4.88;;
47251;SDS011;32991;51.374;11.586;2023-04-06T13:53:15;6.43;;;4.90;;
47251;SDS011;32991;51.374;11.586;2023-04-06T13:55:41;5.78;;;4.90;;
47251;SDS011;32991;51.374;11.586;2023-04-06T13:58:08;6.28;;;5.10;;
47251;SDS011;32991;51.374;11.586;2023-04-06T14:00:35;5.07;;;4.57;;
47251;SDS011;32991;51.374;11.586;2023-04-06T14:03:02;5.07;;;4.57;;
47251;SDS011;32991;51.374;11.586;2023-04-06T14:05:32;8.68;;;4.70;;
47251;SDS011;32991;51.374;11.586;2023-04-06T14:07:59;7.53;;;4.72;;
47251;SDS011;32991;51.374;11.586;2023-04-06T14:10:25;7.15;;;4.32;;
47251;SDS011;32991;51.374;11.586;2023-04-06T14:12:53;5.60;;;4.75;;
47251;SDS011;32991;51.374;11.586;2023-04-06T14:15:20;6.07;;;4.53;;
47251;SDS011;32991;51.374;11.586;2023-04-06T14:17:48;19.52;;;5.22;;
47251;SDS011;32991;51.374;11.586;2023-04-06T14:20:14;4.88;;;4.45;;
47251;SDS011;32991;51.374;11.586;2023-04-06T14:22:41;5.88;;;5.03;;
47251;SDS011;32991;51.374;11.586;2023-04-06T14:25:09;5.70;;;5.05;;
47251;SDS011;32991;51.374;11.586;2023-04-06T14:27:37;8.60;;;5.05;;
47251;SDS011;32991;51.374;11.586;2023-04-06T14:30:04;8.63;;;5.25;;
47251;SDS011;32991;51.374;11.586;2023-04-06T14:32:31;6.00;;;5.05;;
47251;SDS011;32991;51.374;11.586;2023-04-06T14:34:58;5.55;;;4.75;;
47251;SDS011;32991;51.374;11.586;2023-04-06T14:37:25;10.57;;;5.20;;
47251;SDS011;32991;51.374;11.586;2023-04-06T14:39:52;5.43;;;4.15;;
47251;SDS011;32991;51.374;11.586;2023-04-06T14:42:19;6.25;;;4.50;;
47251;SDS011;32991;51.374;11.586;2023-04-06T14:44:45;5.03;;;4.47;;
47251;SDS011;32991;51.374;11.586;2023-04-06T14:47:12;5.30;;;4.47;;
47251;SDS011;32991;51.374;11.586;2023-04-06T14:49:41;6.00;;;4.40;;